createdAt,value
2022-11-17T00:01:26.191Z,6.85
2022-11-17T00:03:54.411Z,7.10
2022-11-17T00:06:24.152Z,7.10
2022-11-17T00:08:53.621Z,6.40
2022-11-17T00:11:21.833Z,6.68
2022-11-17T00:14:08.698Z,6.60
2022-11-17T00:16:37.142Z,6.25
2022-11-17T00:19:23.869Z,6.68
2022-11-17T00:21:53.823Z,6.45
2022-11-17T00:24:24.404Z,6.65
2022-11-17T00:27:04.449Z,6.43
2022-11-17T00:29:34.509Z,7.07
2022-11-17T00:32:24.811Z,6.70
2022-11-17T00:34:53.952Z,6.32
2022-11-17T00:37:24.406Z,6.47
2022-11-17T00:39:57.762Z,6.72
2022-11-17T00:42:28.768Z,7.10
2022-11-17T00:44:56.934Z,6.70
2022-11-17T00:47:25.241Z,6.57
2022-11-17T00:49:53.419Z,6.50
2022-11-17T00:52:23.259Z,6.18
2022-11-17T00:54:51.469Z,6.00
2022-11-17T00:57:19.763Z,6.30
2022-11-17T00:59:47.828Z,6.45
2022-11-17T01:02:16.130Z,6.10
2022-11-17T01:04:44.252Z,6.25
2022-11-17T01:07:12.584Z,6.20
2022-11-17T01:09:42.347Z,6.75
2022-11-17T01:12:10.749Z,5.85
2022-11-17T01:14:38.913Z,6.03
2022-11-17T01:17:07.069Z,5.93
2022-11-17T01:19:34.852Z,6.43
2022-11-17T01:22:02.700Z,5.63
2022-11-17T01:24:30.571Z,6.57
2022-11-17T01:26:59.961Z,5.85
2022-11-17T01:29:27.810Z,5.50
2022-11-17T01:31:55.728Z,6.07
2022-11-17T01:34:23.509Z,5.55
2022-11-17T01:37:10.089Z,6.43
2022-11-17T01:39:38.104Z,6.20
2022-11-17T01:42:14.642Z,6.20
2022-11-17T01:47:32.160Z,6.22
2022-11-17T01:50:07.190Z,5.32
2022-11-17T01:52:37.560Z,5.35
2022-11-17T01:55:09.059Z,6.15
2022-11-17T01:57:42.560Z,5.72
2022-11-17T02:00:11.679Z,5.95
2022-11-17T02:02:41.580Z,5.72
2022-11-17T02:05:20.762Z,6.03
2022-11-17T02:07:52.291Z,5.88
2022-11-17T02:10:20.628Z,5.35
2022-11-17T02:12:50.830Z,5.30
2022-11-17T02:15:18.920Z,5.53
2022-11-17T02:17:46.860Z,5.43
2022-11-17T02:20:18.180Z,4.85
2022-11-17T02:23:11.790Z,5.85
2022-11-17T02:26:03.420Z,6.03
2022-11-17T02:28:35.221Z,5.57
2022-11-17T02:31:12.330Z,5.93
2022-11-17T02:33:51.416Z,5.55
2022-11-17T02:36:29.085Z,5.65
2022-11-17T02:39:05.156Z,5.38
2022-11-17T02:41:41.337Z,5.43
2022-11-17T02:44:16.353Z,5.43
2022-11-17T02:46:47.176Z,6.22
2022-11-17T02:49:20.303Z,5.20
2022-11-17T02:51:52.759Z,5.30
2022-11-17T02:54:23.223Z,5.13
2022-11-17T02:56:51.348Z,5.20
2022-11-17T02:59:25.578Z,4.97
2022-11-17T03:02:29.269Z,4.65
2022-11-17T03:05:08.707Z,4.47
2022-11-17T03:07:59.701Z,4.93
2022-11-17T03:10:35.809Z,5.40
2022-11-17T03:13:12.927Z,4.40
2022-11-17T03:15:51.028Z,4.55
2022-11-17T03:18:24.868Z,3.83
2022-11-17T03:21:05.443Z,4.20
2022-11-17T03:23:41.670Z,3.47
2022-11-17T03:26:13.058Z,3.63
2022-11-17T03:28:44.016Z,3.50
2022-11-17T03:31:15.626Z,3.67
2022-11-17T03:33:45.847Z,3.50
2022-11-17T03:36:16.260Z,3.97
2022-11-17T03:38:50.786Z,3.60
2022-11-17T03:41:20.588Z,3.50
2022-11-17T03:43:52.116Z,3.92
2022-11-17T03:46:23.247Z,3.90
2022-11-17T03:48:57.318Z,4.82
2022-11-17T03:51:28.657Z,4.40
2022-11-17T03:53:56.937Z,4.25
2022-11-17T03:56:34.757Z,4.47
2022-11-17T03:59:04.666Z,4.70
2022-11-17T04:01:35.565Z,4.00
2022-11-17T04:04:03.678Z,4.18
2022-11-17T04:06:31.563Z,4.05
2022-11-17T04:08:59.498Z,3.72
2022-11-17T04:11:45.608Z,3.92
2022-11-17T04:14:31.966Z,3.43
2022-11-17T04:17:01.428Z,3.63
2022-11-17T04:19:29.251Z,3.60
2022-11-17T04:21:57.247Z,3.53
2022-11-17T04:24:25.257Z,3.47
2022-11-17T04:27:11.845Z,2.80
2022-11-17T04:29:40.036Z,2.83
2022-11-17T04:32:09.436Z,2.67
2022-11-17T04:34:39.106Z,2.85
2022-11-17T04:37:17.565Z,2.65
2022-11-17T04:39:46.140Z,2.67
2022-11-17T04:42:13.978Z,2.33
2022-11-17T04:44:42.056Z,2.60
2022-11-17T04:47:11.346Z,2.60
2022-11-17T04:49:39.437Z,2.05
2022-11-17T04:52:07.280Z,2.80
2022-11-17T04:54:35.287Z,2.35
2022-11-17T04:57:03.185Z,2.65
2022-11-17T04:59:31.167Z,2.45
2022-11-17T05:02:05.306Z,2.47
2022-11-17T05:04:53.870Z,2.80
2022-11-17T05:07:21.941Z,2.47
2022-11-17T05:09:49.917Z,3.25
2022-11-17T05:12:46.861Z,3.28
2022-11-17T05:15:37.465Z,3.30
2022-11-17T05:18:05.275Z,2.67
2022-11-17T05:20:35.128Z,3.50
2022-11-17T05:23:21.508Z,3.05
2022-11-17T05:25:53.416Z,3.13
2022-11-17T05:28:21.256Z,3.95
2022-11-17T05:30:49.006Z,3.40
2022-11-17T05:33:17.019Z,3.50
2022-11-17T05:35:46.115Z,4.00
2022-11-17T05:38:18.863Z,3.42
2022-11-17T05:40:46.610Z,3.65
2022-11-17T05:43:14.312Z,3.92
2022-11-17T05:45:42.240Z,3.75
2022-11-17T05:48:09.814Z,3.55
2022-11-17T05:50:37.661Z,3.45
2022-11-17T05:53:06.928Z,3.83
2022-11-17T05:55:35.007Z,3.20
2022-11-17T05:58:06.876Z,3.60
2022-11-17T06:00:36.506Z,3.45
2022-11-17T06:03:08.392Z,3.38
2022-11-17T06:05:36.110Z,3.25
2022-11-17T06:08:03.919Z,3.85
2022-11-17T06:10:34.676Z,4.05
2022-11-17T06:13:02.305Z,3.90
2022-11-17T06:15:30.559Z,3.80
2022-11-17T06:18:02.536Z,3.63
2022-11-17T06:20:34.899Z,3.85
2022-11-17T06:23:05.967Z,3.78
2022-11-17T06:25:36.979Z,4.32
2022-11-17T06:28:10.331Z,4.63
2022-11-17T06:30:39.021Z,4.07
2022-11-17T06:33:08.300Z,3.85
2022-11-17T06:35:36.722Z,4.30
2022-11-17T06:38:04.485Z,3.97
2022-11-17T06:40:32.252Z,3.80
2022-11-17T06:43:06.783Z,3.78
2022-11-17T06:45:34.530Z,3.78
2022-11-17T06:48:02.524Z,3.45
2022-11-17T06:50:30.150Z,3.60
2022-11-17T06:52:58.458Z,3.58
2022-11-17T06:55:26.647Z,3.47
2022-11-17T06:58:01.658Z,3.60
2022-11-17T07:00:30.804Z,3.55
2022-11-17T07:03:02.774Z,2.85
2022-11-17T07:05:30.961Z,3.42
2022-11-17T07:08:01.075Z,3.08
2022-11-17T07:10:29.855Z,3.30
2022-11-17T07:12:57.615Z,2.78
2022-11-17T07:15:27.121Z,3.47
2022-11-17T07:17:54.828Z,3.00
2022-11-17T07:20:22.670Z,3.25
2022-11-17T07:22:50.527Z,3.25
2022-11-17T07:25:22.225Z,3.28
2022-11-17T07:27:58.352Z,2.85
2022-11-17T07:30:27.865Z,3.60
2022-11-17T07:32:55.623Z,4.22
2022-11-17T07:35:23.303Z,4.20
2022-11-17T07:37:51.174Z,3.92
2022-11-17T07:40:19.253Z,4.68
2022-11-17T07:42:49.694Z,4.50
2022-11-17T07:45:18.328Z,3.72
2022-11-17T07:47:53.461Z,5.00
2022-11-17T07:50:21.687Z,4.95
2022-11-17T07:52:49.984Z,5.03
2022-11-17T07:55:18.208Z,3.70
2022-11-17T07:57:46.386Z,3.80
2022-11-17T08:00:15.456Z,4.10
2022-11-17T08:02:43.293Z,3.58
2022-11-17T08:05:12.678Z,4.00
2022-11-17T08:07:40.384Z,3.50
2022-11-17T08:10:08.820Z,3.35
2022-11-17T08:12:36.889Z,3.08
2022-11-17T08:15:05.374Z,2.90
2022-11-17T08:17:33.159Z,3.17
2022-11-17T08:20:01.105Z,3.10
2022-11-17T08:22:30.239Z,3.40
2022-11-17T08:24:58.180Z,3.05
2022-11-17T08:27:26.666Z,3.40
2022-11-17T08:29:54.446Z,3.10
2022-11-17T08:32:22.649Z,2.90
2022-11-17T08:34:50.491Z,3.05
2022-11-17T08:37:18.143Z,2.80
2022-11-17T08:39:47.443Z,2.45
2022-11-17T08:42:16.828Z,3.53
2022-11-17T08:44:45.454Z,3.50
2022-11-17T08:47:13.048Z,3.20
2022-11-17T08:49:40.871Z,3.67
2022-11-17T08:52:08.724Z,3.20
2022-11-17T08:54:36.589Z,3.58
2022-11-17T08:57:05.633Z,3.58
2022-11-17T08:59:33.383Z,3.47
2022-11-17T09:02:01.156Z,3.17
2022-11-17T09:04:28.874Z,3.22
2022-11-17T09:06:56.657Z,3.30
2022-11-17T09:09:24.702Z,2.70
2022-11-17T09:11:52.461Z,2.95
2022-11-17T09:14:21.752Z,3.33
2022-11-17T09:16:50.049Z,2.90
2022-11-17T09:19:18.610Z,4.00
2022-11-17T09:21:46.592Z,4.00
2022-11-17T09:24:14.845Z,4.20
2022-11-17T09:26:43.382Z,4.50
2022-11-17T09:29:11.494Z,3.92
2022-11-17T09:31:41.285Z,4.50
2022-11-17T09:34:09.628Z,4.55
2022-11-17T09:36:37.793Z,5.60
2022-11-17T09:39:06.093Z,5.45
2022-11-17T09:41:38.601Z,5.30
2022-11-17T09:44:16.100Z,4.90
2022-11-17T09:47:03.372Z,5.32
2022-11-17T09:52:13.542Z,4.88
2022-11-17T09:54:47.750Z,4.90
2022-11-17T09:57:25.281Z,5.22
2022-11-17T10:00:02.390Z,5.25
2022-11-17T10:02:34.604Z,6.22
2022-11-17T10:05:03.091Z,5.18
2022-11-17T10:07:33.931Z,5.15
2022-11-17T10:10:06.211Z,5.82
2022-11-17T10:12:42.347Z,5.78
2022-11-17T10:15:26.011Z,5.43
2022-11-17T10:17:55.720Z,5.85
2022-11-17T10:20:23.891Z,5.60
2022-11-17T10:22:54.285Z,5.70
2022-11-17T10:25:35.552Z,6.03
2022-11-17T10:28:04.114Z,5.47
2022-11-17T10:30:32.225Z,5.95
2022-11-17T10:33:02.781Z,5.72
2022-11-17T10:35:32.766Z,5.72
2022-11-17T10:38:02.939Z,5.93
2022-11-17T10:40:32.331Z,6.20
2022-11-17T10:43:26.648Z,6.40
2022-11-17T10:45:57.256Z,6.10
2022-11-17T10:48:29.945Z,6.13
2022-11-17T10:50:59.737Z,6.32
2022-11-17T10:53:37.044Z,5.85
2022-11-17T10:56:16.124Z,6.20
2022-11-17T10:59:02.662Z,5.90
2022-11-17T11:01:32.943Z,7.75
2022-11-17T11:04:03.675Z,6.90
2022-11-17T11:06:33.416Z,7.13
2022-11-17T11:09:05.055Z,6.57
2022-11-17T11:11:45.385Z,6.70
2022-11-17T11:14:19.803Z,8.05
2022-11-17T11:16:50.612Z,8.82
2022-11-17T11:19:21.617Z,6.93
2022-11-17T11:22:21.424Z,6.55
2022-11-17T11:24:58.482Z,6.22
2022-11-17T11:27:42.403Z,6.30
2022-11-17T11:30:12.418Z,6.40
2022-11-17T11:32:56.833Z,6.45
2022-11-17T11:36:03.070Z,6.22
2022-11-17T11:38:50.554Z,6.47
2022-11-17T11:41:31.884Z,5.85
2022-11-17T11:44:17.960Z,5.90
2022-11-17T11:46:53.626Z,6.20
2022-11-17T11:49:32.829Z,6.80
2022-11-17T11:52:03.352Z,7.55
2022-11-17T11:54:41.544Z,6.93
2022-11-17T11:57:14.295Z,7.20
2022-11-17T11:59:50.965Z,6.38
2022-11-17T12:05:00.284Z,5.57
2022-11-17T12:07:35.186Z,5.75
2022-11-17T12:10:11.366Z,4.72
2022-11-17T12:12:41.474Z,5.72
2022-11-17T12:15:29.989Z,5.00
2022-11-17T12:18:05.398Z,4.65
2022-11-17T12:21:12.045Z,4.63
2022-11-17T12:24:08.717Z,4.20
2022-11-17T12:26:39.196Z,4.78
2022-11-17T12:29:46.783Z,4.43
2022-11-17T12:32:53.405Z,4.53
2022-11-17T12:35:27.137Z,4.43
2022-11-17T12:38:37.325Z,4.25
2022-11-17T12:41:06.670Z,4.00
2022-11-17T12:43:36.284Z,4.70
2022-11-17T12:46:27.175Z,4.68
2022-11-17T12:49:03.990Z,4.15
2022-11-17T12:51:39.784Z,4.03
2022-11-17T12:54:21.065Z,3.77
2022-11-17T12:56:57.834Z,3.60
2022-11-17T13:00:02.615Z,3.88
2022-11-17T13:02:53.441Z,4.05
2022-11-17T13:05:31.065Z,3.78
2022-11-17T13:08:21.455Z,3.47
2022-11-17T13:10:50.197Z,3.15
2022-11-17T13:13:19.843Z,3.70
2022-11-17T13:15:52.634Z,3.45
2022-11-17T13:18:30.885Z,3.17
2022-11-17T13:20:59.563Z,4.18
2022-11-17T13:23:28.894Z,4.60
2022-11-17T13:26:10.554Z,4.72
2022-11-17T13:28:38.624Z,4.95
2022-11-17T13:31:14.153Z,4.90
2022-11-17T13:33:42.109Z,4.30
2022-11-17T13:36:17.933Z,3.47
2022-11-17T13:39:21.650Z,3.72
2022-11-17T13:41:52.254Z,3.30
2022-11-17T13:44:24.155Z,3.13
2022-11-17T13:46:53.546Z,3.85
2022-11-17T13:49:34.333Z,3.53
2022-11-17T13:52:02.490Z,3.33
2022-11-17T13:54:30.627Z,3.40
2022-11-17T13:57:04.316Z,3.53
2022-11-17T13:59:35.085Z,3.10
2022-11-17T14:02:31.282Z,3.80
2022-11-17T14:05:23.195Z,3.20
2022-11-17T14:07:51.643Z,3.50
2022-11-17T14:10:34.926Z,3.45
2022-11-17T14:13:30.103Z,2.88
2022-11-17T14:16:00.207Z,2.97
2022-11-17T14:18:32.799Z,2.92
2022-11-17T14:21:13.344Z,3.72
2022-11-17T14:23:42.030Z,3.47
2022-11-17T14:26:20.344Z,4.07
2022-11-17T14:28:49.431Z,3.97
2022-11-17T14:31:17.173Z,3.60
2022-11-17T14:33:46.766Z,3.65
2022-11-17T14:36:17.483Z,3.65
2022-11-17T14:38:46.151Z,3.50
2022-11-17T14:41:15.814Z,3.50
2022-11-17T14:43:43.646Z,3.22
2022-11-17T14:46:19.450Z,4.88
2022-11-17T14:48:48.677Z,6.72
2022-11-17T14:51:16.466Z,6.07
2022-11-17T14:53:44.399Z,8.38
2022-11-17T14:56:14.628Z,5.68
2022-11-17T14:58:42.603Z,5.72
2022-11-17T15:01:11.866Z,5.30
2022-11-17T15:03:39.619Z,5.22
2022-11-17T15:06:12.111Z,5.38
2022-11-17T15:08:44.311Z,7.10
2022-11-17T15:11:16.073Z,7.47
2022-11-17T15:13:44.095Z,6.60
2022-11-17T15:16:12.313Z,6.90
2022-11-17T15:18:40.352Z,6.30
2022-11-17T15:21:11.220Z,6.07
2022-11-17T15:23:40.393Z,5.55
2022-11-17T15:26:10.602Z,6.22
2022-11-17T15:28:38.481Z,6.28
2022-11-17T15:31:11.692Z,6.22
2022-11-17T15:33:40.982Z,5.88
2022-11-17T15:36:11.973Z,5.90
2022-11-17T15:38:40.712Z,7.55
2022-11-17T15:41:10.522Z,7.05
2022-11-17T15:43:40.251Z,6.32
2022-11-17T15:46:09.524Z,14.52
2022-11-17T15:48:44.474Z,9.48
2022-11-17T15:51:15.732Z,9.00
2022-11-17T15:53:44.781Z,8.50
2022-11-17T15:56:14.432Z,8.27
2022-11-17T15:58:43.593Z,8.27
2022-11-17T16:01:13.671Z,8.88
2022-11-17T16:03:43.042Z,8.48
2022-11-17T16:06:13.752Z,7.97
2022-11-17T16:08:41.662Z,6.47
2022-11-17T16:11:10.706Z,9.48
2022-11-17T16:13:39.105Z,8.00
2022-11-17T16:16:08.173Z,7.65
2022-11-17T16:18:38.824Z,6.88
2022-11-17T16:21:08.405Z,6.57
2022-11-17T16:23:42.462Z,10.05
2022-11-17T16:26:11.352Z,7.57
2022-11-17T16:28:39.543Z,8.48
2022-11-17T16:31:16.042Z,7.85
2022-11-17T16:33:48.977Z,8.40
2022-11-17T16:36:17.201Z,7.82
2022-11-17T16:39:00.539Z,8.55
2022-11-17T16:41:31.670Z,11.07
2022-11-17T16:44:15.697Z,14.85
2022-11-17T16:46:44.913Z,11.60
2022-11-17T16:49:14.531Z,12.40
2022-11-17T16:51:47.520Z,8.88
2022-11-17T16:54:18.129Z,11.32
2022-11-17T16:56:46.167Z,11.70
2022-11-17T16:59:14.951Z,12.38
2022-11-17T17:01:42.972Z,13.25
2022-11-17T17:04:12.583Z,12.30
2022-11-17T17:06:41.111Z,10.85
2022-11-17T17:09:10.328Z,11.55
2022-11-17T17:11:39.589Z,11.82
2022-11-17T17:14:09.122Z,10.65
2022-11-17T17:16:40.315Z,11.15
2022-11-17T17:19:11.695Z,10.48
2022-11-17T17:21:41.656Z,9.45
2022-11-17T17:24:10.261Z,11.00
2022-11-17T17:26:40.771Z,10.65
2022-11-17T17:29:09.014Z,11.80
2022-11-17T17:31:51.804Z,11.93
2022-11-17T17:34:19.783Z,15.23
2022-11-17T17:36:47.507Z,12.75
2022-11-17T17:39:16.065Z,13.32
2022-11-17T17:41:46.165Z,15.52
2022-11-17T17:44:16.724Z,14.95
2022-11-17T17:46:45.200Z,14.27
2022-11-17T17:49:13.676Z,13.57
2022-11-17T17:51:44.441Z,13.70
2022-11-17T17:54:16.724Z,14.85
2022-11-17T17:56:47.107Z,15.48
2022-11-17T17:59:16.149Z,14.95
2022-11-17T18:01:46.355Z,16.08
2022-11-17T18:04:16.103Z,19.63
2022-11-17T18:06:48.901Z,20.92
2022-11-17T18:09:20.493Z,18.02
2022-11-17T18:11:51.279Z,19.60
2022-11-17T18:14:24.570Z,18.38
2022-11-17T18:16:53.562Z,16.90
2022-11-17T18:19:21.306Z,16.63
2022-11-17T18:21:49.148Z,16.08
2022-11-17T18:24:16.806Z,14.80
2022-11-17T18:26:51.539Z,13.95
2022-11-17T18:29:19.805Z,14.88
2022-11-17T18:31:49.533Z,15.48
2022-11-17T18:34:21.284Z,15.52
2022-11-17T18:36:49.687Z,16.83
2022-11-17T18:39:18.351Z,15.98
2022-11-17T18:41:47.255Z,16.67
2022-11-17T18:44:21.318Z,18.38
2022-11-17T18:47:01.194Z,15.70
2022-11-17T18:49:31.533Z,15.73
2022-11-17T18:51:59.237Z,15.68
2022-11-17T18:54:27.063Z,17.90
2022-11-17T18:56:54.726Z,20.73
2022-11-17T18:59:24.011Z,17.77
2022-11-17T19:01:52.465Z,17.58
2022-11-17T19:04:20.345Z,18.90
2022-11-17T19:06:48.001Z,16.58
2022-11-17T19:09:16.408Z,16.73
2022-11-17T19:11:44.627Z,15.05
2022-11-17T19:14:12.420Z,15.82
2022-11-17T19:16:44.752Z,21.88
2022-11-17T19:19:14.248Z,17.48
2022-11-17T19:21:42.871Z,14.88
2022-11-17T19:24:11.437Z,17.42
2022-11-17T19:26:39.735Z,15.68
2022-11-17T19:29:21.315Z,14.77
2022-11-17T19:31:52.699Z,16.48
2022-11-17T19:34:20.660Z,14.73
2022-11-17T19:36:48.466Z,14.65
2022-11-17T19:39:17.232Z,14.73
2022-11-17T19:41:54.389Z,16.52
2022-11-17T19:44:22.442Z,15.02
2022-11-17T19:46:53.542Z,12.57
2022-11-17T19:49:21.575Z,12.45
2022-11-17T19:51:49.392Z,11.32
2022-11-17T19:54:17.442Z,12.25
2022-11-17T19:56:45.272Z,11.05
2022-11-17T19:59:16.334Z,13.02
2022-11-17T20:01:45.609Z,15.18
2022-11-17T20:04:15.442Z,13.88
2022-11-17T20:06:43.916Z,12.40
2022-11-17T20:09:13.393Z,13.77
2022-11-17T20:11:42.089Z,13.82
2022-11-17T20:14:10.982Z,13.98
2022-11-17T20:16:39.139Z,16.00
2022-11-17T20:19:07.342Z,15.40
2022-11-17T20:21:37.122Z,17.15
2022-11-17T20:24:05.144Z,16.80
2022-11-17T20:26:35.840Z,14.70
2022-11-17T20:29:03.815Z,15.25
2022-11-17T20:31:34.229Z,14.98
2022-11-17T20:34:03.784Z,14.15
2022-11-17T20:36:33.520Z,13.43
2022-11-17T20:39:04.720Z,12.85
2022-11-17T20:41:32.789Z,12.85
2022-11-17T20:44:02.753Z,12.95
2022-11-17T20:46:30.897Z,11.70
2022-11-17T20:48:59.227Z,12.38
2022-11-17T20:51:27.275Z,11.05
2022-11-17T20:53:55.224Z,11.43
2022-11-17T20:56:24.546Z,11.30
2022-11-17T20:58:52.481Z,12.10
2022-11-17T21:01:24.832Z,12.02
2022-11-17T21:03:53.186Z,11.85
2022-11-17T21:06:23.631Z,11.77
2022-11-17T21:08:53.041Z,12.07
2022-11-17T21:11:42.876Z,12.40
2022-11-17T21:14:12.340Z,12.07
2022-11-17T21:16:42.303Z,12.10
2022-11-17T21:19:10.741Z,12.70
2022-11-17T21:21:38.881Z,12.57
2022-11-17T21:24:08.260Z,13.45
2022-11-17T21:26:38.422Z,12.73
2022-11-17T21:29:07.250Z,12.60
2022-11-17T21:31:35.564Z,12.90
2022-11-17T21:34:06.368Z,12.13
2022-11-17T21:36:35.872Z,11.50
2022-11-17T21:39:04.704Z,11.73
2022-11-17T21:41:38.672Z,11.10
2022-11-17T21:44:08.401Z,11.00
2022-11-17T21:46:36.649Z,12.52
2022-11-17T21:49:05.055Z,14.05
2022-11-17T21:51:34.400Z,14.32
2022-11-17T21:54:04.708Z,12.75
2022-11-17T21:56:33.111Z,11.82
2022-11-17T21:59:03.211Z,13.65
2022-11-17T22:01:34.188Z,14.32
2022-11-17T22:04:02.377Z,14.13
2022-11-17T22:06:30.797Z,13.57
2022-11-17T22:09:00.166Z,12.65
2022-11-17T22:11:36.852Z,14.52
2022-11-17T22:14:07.554Z,14.25
2022-11-17T22:16:39.091Z,13.82
2022-11-17T22:19:08.217Z,14.63
2022-11-17T22:21:36.919Z,14.35
2022-11-17T22:24:05.952Z,13.85
2022-11-17T22:26:36.178Z,14.35
2022-11-17T22:29:04.763Z,15.30
2022-11-17T22:31:32.847Z,14.73
2022-11-17T22:34:02.201Z,15.18
2022-11-17T22:36:30.387Z,15.30
2022-11-17T22:38:58.358Z,13.88
2022-11-17T22:41:26.592Z,13.05
2022-11-17T22:43:56.081Z,12.27
2022-11-17T22:46:25.904Z,12.60
2022-11-17T22:48:55.082Z,12.70
2022-11-17T22:51:48.561Z,12.50
2022-11-17T22:54:16.572Z,11.98
2022-11-17T22:56:44.404Z,11.25
2022-11-17T22:59:12.392Z,11.30
2022-11-17T23:01:40.211Z,11.38
2022-11-17T23:04:08.377Z,11.30
2022-11-17T23:06:37.792Z,9.90
2022-11-17T23:09:05.953Z,10.35
2022-11-17T23:11:38.307Z,9.38
2022-11-17T23:14:08.334Z,9.75
2022-11-17T23:16:37.015Z,10.88
2022-11-17T23:19:05.945Z,11.20
2022-11-17T23:21:34.201Z,11.07
2022-11-17T23:24:05.043Z,9.88
2022-11-17T23:26:33.193Z,9.07
2022-11-17T23:29:01.143Z,8.75
2022-11-17T23:31:29.843Z,8.32
2022-11-17T23:33:57.994Z,8.13
2022-11-17T23:36:26.173Z,8.52
2022-11-17T23:38:56.926Z,8.00
2022-11-17T23:41:26.833Z,7.22
2022-11-17T23:43:55.045Z,7.60
2022-11-17T23:46:25.462Z,8.52
2022-11-17T23:48:54.691Z,8.68
2022-11-17T23:51:24.641Z,8.00
2022-11-17T23:53:53.065Z,6.72
2022-11-17T23:56:21.905Z,6.32
2022-11-17T23:58:52.282Z,6.00
